YM Etdr — A8OS2 — position and weather

sailwx.info

Track history (hours):
 
Tides and Currents Weather Stations Pressure Air Temp Water Temp Dewpoint Dewpoint Depression Visibility Wind Speed Wind Dir Waves Ship Positions

YM Etdr

Last reported at 2018-Aug-20 05:04 UTC. Time now 2018-Aug-21 03:58 UTC.
Position N 01°31' E 103°02'.

Length 269 m; draft 10 m.

Type: Cargo ship. MMSI: 635961358.

Date/timePositionNaut miles runAvg speedWind from/ knotsBaromVisibWave heightAir tempDewpointWater temp
2018-Aug-20 05:04N 01°31' E 103°02'117.8
2018-Aug-20 05:02N 01°31' E 103°03'720.3
2018-Aug-20 04:40N 01°26' E 103°08'520.0
2018-Aug-20 04:26N 01°23' E 103°12'1021.5
2018-Aug-20 03:58N 01°18' E 103°20'919.9
2018-Aug-20 03:30N 01°13' E 103°28'1020.1
2018-Aug-20 03:00N 01°12' E 103°38'612.1
2018-Aug-20 02:30N 01°15' E 103°43'4 7.7
2018-Aug-20 02:00N 01°16' E 103°47'0 0.0
2018-Aug-20 01:30N 01°16' E 103°47'0 0.0
2018-Aug-20 01:00N 01°16' E 103°47'0 0.0
2018-Aug-20 00:30N 01°16' E 103°47'0 0.0
2018-Aug-19 23:58N 01°16' E 103°47'0 0.0
2018-Aug-19 23:27N 01°16' E 103°47'0 0.0
2018-Aug-19 22:57N 01°16' E 103°47'0 0.0
2018-Aug-19 22:30N 01°16' E 103°47'0 0.0
2018-Aug-19 22:00N 01°16' E 103°47'0 0.0
2018-Aug-19 21:28N 01°16' E 103°47'0 0.0
2018-Aug-19 20:58N 01°16' E 103°47'0 0.0
2018-Aug-19 20:30N 01°16' E 103°47'0 0.0
2018-Aug-19 19:58N 01°16' E 103°47'0 0.0
2018-Aug-19 19:28N 01°16' E 103°47'0 0.0
2018-Aug-19 19:00N 01°16' E 103°47'0 0.0
2018-Aug-19 18:30N 01°16' E 103°47'0 0.0
2018-Aug-19 18:00N 01°16' E 103°47'0 0.0
2018-Aug-19 17:27N 01°16' E 103°47'0 0.0
2018-Aug-19 16:58N 01°16' E 103°47'0 0.0
2018-Aug-19 16:28N 01°16' E 103°47'0 0.0
2018-Aug-19 15:58N 01°16' E 103°47'0 0.0
2018-Aug-19 15:28N 01°16' E 103°47'0 0.0
2018-Aug-19 15:00N 01°16' E 103°47'0 0.8
2018-Aug-19 14:30N 01°16' E 103°47'4 8.3
2018-Aug-19 14:00N 01°13' E 103°49'612.6
2018-Aug-19 13:30N 01°14' E 103°55'2 3.3
2018-Aug-19 13:00N 01°15' E 103°57'4 7.2
2018-Aug-19 12:29N 01°16' E 104°00'4 8.2
2018-Aug-19 12:00N 01°16' E 104°04'3 6.4
2018-Aug-19 11:30N 01°17' E 104°07'3 5.0
2018-Aug-19 10:57N 01°17' E 104°10'3 7.2
2018-Aug-19 10:30N 01°17' E 104°13'4 8.4
2018-Aug-19 09:59N 01°18' E 104°18'4 8.3
2018-Aug-19 09:31N 01°20' E 104°21'4 8.6
2018-Aug-19 08:59N 01°24' E 104°24'4 8.0
2018-Aug-19 08:30N 01°26' E 104°27'  
2018-Aug-11 14:13N 34°46' E 139°36'420.7
2018-Aug-11 14:00N 34°50' E 139°37'1121.0
2018-Aug-11 13:30N 35°00' E 139°40'918.3
2018-Aug-11 13:00N 35°08' E 139°45'612.2
2018-Aug-11 12:30N 35°14' E 139°46'612.5
2018-Aug-11 12:00N 35°20' E 139°42'611.8
2018-Aug-11 11:30N 35°25' E 139°45'612.5
2018-Aug-11 11:00N 35°30' E 139°51'612.8
2018-Aug-11 10:31N 35°35' E 139°47'1 2.1
2018-Aug-11 09:51N 35°37' E 139°47'0 0.0
2018-Aug-11 09:30N 35°37' E 139°47'0 0.0
2018-Aug-11 08:54N 35°37' E 139°47'0 0.0
2018-Aug-11 08:18N 35°37' E 139°47'0 0.1
2018-Aug-11 07:48N 35°37' E 139°47'0 0.1
2018-Aug-11 07:24N 35°37' E 139°47'0 0.0
2018-Aug-11 06:54N 35°37' E 139°47'0 0.0
2018-Aug-11 06:30N 35°37' E 139°47'0 0.0
2018-Aug-11 06:00N 35°37' E 139°47'0 0.0
2018-Aug-11 05:24N 35°37' E 139°47'0 0.0
2018-Aug-11 05:00N 35°37' E 139°47'0 0.0
2018-Aug-11 04:30N 35°37' E 139°47'0 0.0
2018-Aug-11 04:00N 35°37' E 139°47'0 0.0
2018-Aug-11 03:24N 35°37' E 139°47'0 0.0
2018-Aug-11 03:00N 35°37' E 139°47'0 0.0
2018-Aug-11 02:30N 35°37' E 139°47'0 0.0
2018-Aug-11 01:54N 35°37' E 139°47'0 0.0
2018-Aug-11 01:27N 35°37' E 139°47'0 0.0
2018-Aug-11 00:57N 35°37' E 139°47'0 0.0
2018-Aug-11 00:24N 35°37' E 139°47'0 0.0
2018-Aug-11 00:00N 35°37' E 139°47'0 0.1
2018-Aug-10 23:30N 35°37' E 139°47'0 0.1
2018-Aug-10 23:00N 35°37' E 139°47'0 0.3
2018-Aug-10 22:30N 35°36' E 139°47'1 1.5
2018-Aug-10 22:00N 35°36' E 139°47'4 8.7
2018-Aug-10 21:30N 35°33' E 139°51'2 3.4
2018-Aug-10 20:58N 35°33' E 139°54'0 0.0
2018-Aug-10 20:28N 35°33' E 139°54'0 0.3
2018-Aug-10 19:46N 35°34' E 139°54'0 0.2
2018-Aug-10 19:19N 35°34' E 139°54'0 0.1
2018-Aug-10 18:58N 35°34' E 139°54'0 0.0
2018-Aug-10 18:28N 35°34' E 139°54'0 0.0
2018-Aug-10 17:40N 35°34' E 139°54'0 0.1
2018-Aug-10 17:28N 35°34' E 139°54'0 0.0
2018-Aug-10 16:52N 35°34' E 139°54'0 0.0
2018-Aug-10 16:16N 35°34' E 139°54'0 0.0
2018-Aug-10 15:55N 35°34' E 139°54'0 0.1
2018-Aug-10 15:16N 35°34' E 139°54'0 0.1
2018-Aug-10 14:55N 35°34' E 139°54'0 0.1
2018-Aug-10 14:13N 35°34' E 139°54'0 0.0
2018-Aug-10 13:07N 35°34' E 139°54'0 0.0
2018-Aug-10 12:55N 35°34' E 139°54'0 0.0
2018-Aug-10 12:28N 35°34' E 139°54'0 0.0
2018-Aug-10 11:31N 35°34' E 139°54'0 0.1
2018-Aug-10 11:25N 35°34' E 139°54'0 0.0
2018-Aug-10 10:52N 35°34' E 139°54'0 0.8
2018-Aug-10 10:30N 35°33' E 139°54'3 5.8
2018-Aug-10 10:00N 35°31' E 139°53'612.8
2018-Aug-10 09:30N 35°26' E 139°47'4 8.3
2018-Aug-10 09:00N 35°28' E 139°42'0 0.8
2018-Aug-10 08:29N 35°28' E 139°42'0 0.0
2018-Aug-10 07:59N 35°28' E 139°42'0 0.0
2018-Aug-10 07:29N 35°28' E 139°42'0 0.1
2018-Aug-10 06:59N 35°28' E 139°42'0 0.1
2018-Aug-10 06:29N 35°28' E 139°42'0 0.0
2018-Aug-10 05:56N 35°28' E 139°42'0 0.0
2018-Aug-10 05:29N 35°28' E 139°42'  
Track history (hours):
 
Tides and Currents Weather Stations Pressure Air Temp Water Temp Dewpoint Dewpoint Depression Visibility Wind Speed Wind Dir Waves Ship Positions

YM Etdr

Last reported at 2018-Aug-20 05:04 UTC. Time now 2018-Aug-21 03:58 UTC.
Position N 01°31' E 103°02'.

Length 269 m; draft 10 m.

Type: Cargo ship. MMSI: 635961358.

Date/timePositionNaut miles runAvg speedWind from/ knotsBaromVisibWave heightAir tempDewpointWater temp
2018-Aug-20 05:04N 01°31' E 103°02'117.8
2018-Aug-20 05:02N 01°31' E 103°03'720.3
2018-Aug-20 04:40N 01°26' E 103°08'520.0
2018-Aug-20 04:26N 01°23' E 103°12'1021.5
2018-Aug-20 03:58N 01°18' E 103°20'919.9
2018-Aug-20 03:30N 01°13' E 103°28'1020.1
2018-Aug-20 03:00N 01°12' E 103°38'612.1
2018-Aug-20 02:30N 01°15' E 103°43'4 7.7
2018-Aug-20 02:00N 01°16' E 103°47'0 0.0
2018-Aug-20 01:30N 01°16' E 103°47'0 0.0
2018-Aug-20 01:00N 01°16' E 103°47'0 0.0
2018-Aug-20 00:30N 01°16' E 103°47'0 0.0
2018-Aug-19 23:58N 01°16' E 103°47'0 0.0
2018-Aug-19 23:27N 01°16' E 103°47'0 0.0
2018-Aug-19 22:57N 01°16' E 103°47'0 0.0
2018-Aug-19 22:30N 01°16' E 103°47'0 0.0
2018-Aug-19 22:00N 01°16' E 103°47'0 0.0
2018-Aug-19 21:28N 01°16' E 103°47'0 0.0
2018-Aug-19 20:58N 01°16' E 103°47'0 0.0
2018-Aug-19 20:30N 01°16' E 103°47'0 0.0
2018-Aug-19 19:58N 01°16' E 103°47'0 0.0
2018-Aug-19 19:28N 01°16' E 103°47'0 0.0
2018-Aug-19 19:00N 01°16' E 103°47'0 0.0
2018-Aug-19 18:30N 01°16' E 103°47'0 0.0
2018-Aug-19 18:00N 01°16' E 103°47'0 0.0
2018-Aug-19 17:27N 01°16' E 103°47'0 0.0
2018-Aug-19 16:58N 01°16' E 103°47'0 0.0
2018-Aug-19 16:28N 01°16' E 103°47'0 0.0
2018-Aug-19 15:58N 01°16' E 103°47'0 0.0
2018-Aug-19 15:28N 01°16' E 103°47'0 0.0
2018-Aug-19 15:00N 01°16' E 103°47'0 0.8
2018-Aug-19 14:30N 01°16' E 103°47'4 8.3
2018-Aug-19 14:00N 01°13' E 103°49'612.6
2018-Aug-19 13:30N 01°14' E 103°55'2 3.3
2018-Aug-19 13:00N 01°15' E 103°57'4 7.2
2018-Aug-19 12:29N 01°16' E 104°00'4 8.2
2018-Aug-19 12:00N 01°16' E 104°04'3 6.4
2018-Aug-19 11:30N 01°17' E 104°07'3 5.0
2018-Aug-19 10:57N 01°17' E 104°10'3 7.2
2018-Aug-19 10:30N 01°17' E 104°13'4 8.4
2018-Aug-19 09:59N 01°18' E 104°18'4 8.3
2018-Aug-19 09:31N 01°20' E 104°21'4 8.6
2018-Aug-19 08:59N 01°24' E 104°24'4 8.0
2018-Aug-19 08:30N 01°26' E 104°27'  
2018-Aug-11 14:13N 34°46' E 139°36'420.7
2018-Aug-11 14:00N 34°50' E 139°37'1121.0
2018-Aug-11 13:30N 35°00' E 139°40'918.3
2018-Aug-11 13:00N 35°08' E 139°45'612.2
2018-Aug-11 12:30N 35°14' E 139°46'612.5
2018-Aug-11 12:00N 35°20' E 139°42'611.8
2018-Aug-11 11:30N 35°25' E 139°45'612.5
2018-Aug-11 11:00N 35°30' E 139°51'612.8
2018-Aug-11 10:31N 35°35' E 139°47'1 2.1
2018-Aug-11 09:51N 35°37' E 139°47'0 0.0
2018-Aug-11 09:30N 35°37' E 139°47'0 0.0
2018-Aug-11 08:54N 35°37' E 139°47'0 0.0
2018-Aug-11 08:18N 35°37' E 139°47'0 0.1
2018-Aug-11 07:48N 35°37' E 139°47'0 0.1
2018-Aug-11 07:24N 35°37' E 139°47'0 0.0
2018-Aug-11 06:54N 35°37' E 139°47'0 0.0
2018-Aug-11 06:30N 35°37' E 139°47'0 0.0
2018-Aug-11 06:00N 35°37' E 139°47'0 0.0
2018-Aug-11 05:24N 35°37' E 139°47'0 0.0
2018-Aug-11 05:00N 35°37' E 139°47'0 0.0
2018-Aug-11 04:30N 35°37' E 139°47'0 0.0
2018-Aug-11 04:00N 35°37' E 139°47'0 0.0
2018-Aug-11 03:24N 35°37' E 139°47'0 0.0
2018-Aug-11 03:00N 35°37' E 139°47'0 0.0
2018-Aug-11 02:30N 35°37' E 139°47'0 0.0
2018-Aug-11 01:54N 35°37' E 139°47'0 0.0
2018-Aug-11 01:27N 35°37' E 139°47'0 0.0
2018-Aug-11 00:57N 35°37' E 139°47'0 0.0
2018-Aug-11 00:24N 35°37' E 139°47'0 0.0
2018-Aug-11 00:00N 35°37' E 139°47'0 0.1
2018-Aug-10 23:30N 35°37' E 139°47'0 0.1
2018-Aug-10 23:00N 35°37' E 139°47'0 0.3
2018-Aug-10 22:30N 35°36' E 139°47'1 1.5
2018-Aug-10 22:00N 35°36' E 139°47'4 8.7
2018-Aug-10 21:30N 35°33' E 139°51'2 3.4
2018-Aug-10 20:58N 35°33' E 139°54'0 0.0
2018-Aug-10 20:28N 35°33' E 139°54'0 0.3
2018-Aug-10 19:46N 35°34' E 139°54'0 0.2
2018-Aug-10 19:19N 35°34' E 139°54'0 0.1
2018-Aug-10 18:58N 35°34' E 139°54'0 0.0
2018-Aug-10 18:28N 35°34' E 139°54'0 0.0
2018-Aug-10 17:40N 35°34' E 139°54'0 0.1
2018-Aug-10 17:28N 35°34' E 139°54'0 0.0
2018-Aug-10 16:52N 35°34' E 139°54'0 0.0
2018-Aug-10 16:16N 35°34' E 139°54'0 0.0
2018-Aug-10 15:55N 35°34' E 139°54'0 0.1
2018-Aug-10 15:16N 35°34' E 139°54'0 0.1
2018-Aug-10 14:55N 35°34' E 139°54'0 0.1
2018-Aug-10 14:13N 35°34' E 139°54'0 0.0
2018-Aug-10 13:07N 35°34' E 139°54'0 0.0
2018-Aug-10 12:55N 35°34' E 139°54'0 0.0
2018-Aug-10 12:28N 35°34' E 139°54'0 0.0
2018-Aug-10 11:31N 35°34' E 139°54'0 0.1
2018-Aug-10 11:25N 35°34' E 139°54'0 0.0
2018-Aug-10 10:52N 35°34' E 139°54'0 0.8
2018-Aug-10 10:30N 35°33' E 139°54'3 5.8
2018-Aug-10 10:00N 35°31' E 139°53'612.8
2018-Aug-10 09:30N 35°26' E 139°47'4 8.3
2018-Aug-10 09:00N 35°28' E 139°42'0 0.8
2018-Aug-10 08:29N 35°28' E 139°42'0 0.0
2018-Aug-10 07:59N 35°28' E 139°42'0 0.0
2018-Aug-10 07:29N 35°28' E 139°42'0 0.1
2018-Aug-10 06:59N 35°28' E 139°42'0 0.1
2018-Aug-10 06:29N 35°28' E 139°42'0 0.0
2018-Aug-10 05:56N 35°28' E 139°42'0 0.0
2018-Aug-10 05:29N 35°28' E 139°42'  

Dump ship's entire track history